createdAt,value
2023-03-07T00:00:54.721Z,3.71
2023-03-07T00:01:54.714Z,3.71
2023-03-07T00:02:54.742Z,3.71
2023-03-07T00:03:54.763Z,3.70
2023-03-07T00:04:54.676Z,3.71
2023-03-07T00:05:54.667Z,3.68
2023-03-07T00:06:54.656Z,3.67
2023-03-07T00:07:54.648Z,3.70
2023-03-07T00:08:54.667Z,3.70
2023-03-07T00:09:54.625Z,3.68
2023-03-07T00:10:54.612Z,3.68
2023-03-07T00:11:54.605Z,3.67
2023-03-07T00:12:54.600Z,3.68
2023-03-07T00:13:54.581Z,3.64
2023-03-07T00:14:54.569Z,3.64
2023-03-07T00:15:54.601Z,3.64
2023-03-07T00:16:54.546Z,3.68
2023-03-07T00:17:54.564Z,3.67
2023-03-07T00:18:54.527Z,3.63
2023-03-07T00:19:54.527Z,3.64
2023-03-07T00:20:54.505Z,3.64
2023-03-07T00:21:54.496Z,3.68
2023-03-07T00:22:54.485Z,3.64
2023-03-07T00:23:54.473Z,3.67
2023-03-07T00:24:54.485Z,3.67
2023-03-07T00:25:54.452Z,3.67
2023-03-07T00:26:54.439Z,3.68
2023-03-07T00:27:54.429Z,3.67
2023-03-07T00:28:54.419Z,3.67
2023-03-07T00:29:54.412Z,3.67
2023-03-07T00:30:54.399Z,3.67
2023-03-07T00:31:54.389Z,3.64
2023-03-07T00:32:54.374Z,3.64
2023-03-07T00:33:54.370Z,3.63
2023-03-07T00:34:54.359Z,3.63
2023-03-07T00:35:54.427Z,3.63
2023-03-07T00:36:54.334Z,3.62
2023-03-07T00:37:54.324Z,3.62
2023-03-07T00:38:54.314Z,3.62
2023-03-07T00:39:54.305Z,3.60
2023-03-07T00:40:54.316Z,3.62
2023-03-07T00:41:54.285Z,3.62
2023-03-07T00:42:54.271Z,3.59
2023-03-07T00:43:54.261Z,3.59
2023-03-07T00:44:54.249Z,3.60
2023-03-07T00:45:54.549Z,3.60
2023-03-07T00:46:54.230Z,3.59
2023-03-07T00:47:54.218Z,3.62
2023-03-07T00:48:54.211Z,3.59
2023-03-07T00:49:54.213Z,3.60
2023-03-07T00:50:54.188Z,3.59
2023-03-07T00:51:54.179Z,3.57
2023-03-07T00:52:54.170Z,3.59
2023-03-07T00:53:54.162Z,3.60
2023-03-07T00:54:54.144Z,3.57
2023-03-07T00:55:54.140Z,3.57
2023-03-07T00:56:54.147Z,3.54
2023-03-07T00:57:54.130Z,3.54
2023-03-07T00:58:54.102Z,3.52
2023-03-07T00:59:54.093Z,3.53
2023-03-07T01:00:54.113Z,3.53
2023-03-07T01:01:54.071Z,3.50
2023-03-07T01:02:55.368Z,3.50
2023-03-07T01:03:54.392Z,3.49
2023-03-07T01:04:54.040Z,3.50
2023-03-07T01:05:54.027Z,3.49
2023-03-07T01:06:54.017Z,3.50
2023-03-07T01:07:54.005Z,3.50
2023-03-07T01:08:53.993Z,3.50
2023-03-07T01:09:53.987Z,3.50
2023-03-07T01:10:53.971Z,3.49
2023-03-07T01:11:53.960Z,3.50
2023-03-07T01:12:53.976Z,3.46
2023-03-07T01:13:53.942Z,3.45
2023-03-07T01:14:53.928Z,3.49
2023-03-07T01:15:53.917Z,3.46
2023-03-07T01:16:54.046Z,3.46
2023-03-07T01:17:53.896Z,3.45
2023-03-07T01:18:53.884Z,3.45
2023-03-07T01:19:53.876Z,3.44
2023-03-07T01:20:53.867Z,3.46
2023-03-07T01:21:53.852Z,3.44
2023-03-07T01:22:53.840Z,3.45
2023-03-07T01:23:53.840Z,3.46
2023-03-07T01:24:53.828Z,3.46
2023-03-07T01:25:53.832Z,3.46
2023-03-07T01:26:53.798Z,3.46
2023-03-07T01:27:53.789Z,3.46
2023-03-07T01:28:53.805Z,3.49
2023-03-07T01:29:53.771Z,3.46
2023-03-07T01:30:53.755Z,3.49
2023-03-07T01:31:53.792Z,3.50
2023-03-07T01:32:53.730Z,3.46
2023-03-07T01:33:53.722Z,3.45
2023-03-07T01:34:53.709Z,3.49
2023-03-07T01:35:53.803Z,3.49
2023-03-07T01:36:53.709Z,3.50
2023-03-07T01:37:53.677Z,3.52
2023-03-07T01:38:53.667Z,3.49
2023-03-07T01:39:53.658Z,3.52
2023-03-07T01:40:53.647Z,3.52
2023-03-07T01:41:53.633Z,3.53
2023-03-07T01:42:53.630Z,3.52
2023-03-07T01:43:53.613Z,3.52
2023-03-07T01:44:53.632Z,3.52
2023-03-07T01:45:53.640Z,3.53
2023-03-07T01:46:53.579Z,3.52
2023-03-07T01:47:53.577Z,3.53
2023-03-07T01:48:53.558Z,3.53
2023-03-07T01:49:53.556Z,3.56
2023-03-07T01:50:53.534Z,3.54
2023-03-07T01:51:53.525Z,3.56
2023-03-07T01:52:53.552Z,3.57
2023-03-07T01:53:53.569Z,3.57
2023-03-07T01:54:53.495Z,3.59
2023-03-07T01:55:53.479Z,3.57
2023-03-07T01:56:53.472Z,3.57
2023-03-07T01:57:53.453Z,3.60
2023-03-07T01:58:53.445Z,3.59
2023-03-07T01:59:53.431Z,3.62
2023-03-07T02:00:53.559Z,3.63
2023-03-07T02:01:53.410Z,3.60
2023-03-07T02:02:53.401Z,3.62
2023-03-07T02:03:53.436Z,3.64
2023-03-07T02:04:53.380Z,3.63
2023-03-07T02:05:53.380Z,3.64
2023-03-07T02:06:53.356Z,3.64
2023-03-07T02:07:53.343Z,3.67
2023-03-07T02:08:53.342Z,3.67
2023-03-07T02:09:53.331Z,3.68
2023-03-07T02:10:53.313Z,3.68
2023-03-07T02:11:53.306Z,3.70
2023-03-07T02:12:53.291Z,3.68
2023-03-07T02:13:53.279Z,3.70
2023-03-07T02:14:53.272Z,3.70
2023-03-07T02:15:53.309Z,3.70
2023-03-07T02:16:53.271Z,3.74
2023-03-07T02:17:53.237Z,3.72
2023-03-07T02:18:53.231Z,3.71
2023-03-07T02:19:53.230Z,3.74
2023-03-07T02:20:53.224Z,3.75
2023-03-07T02:21:53.216Z,3.75
2023-03-07T02:22:53.186Z,3.77
2023-03-07T02:23:53.172Z,3.77
2023-03-07T02:24:53.166Z,3.77
2023-03-07T02:25:53.152Z,3.78
2023-03-07T02:26:53.166Z,3.75
2023-03-07T02:27:53.165Z,3.78
2023-03-07T02:28:53.126Z,3.75
2023-03-07T02:29:53.119Z,3.77
2023-03-07T02:30:53.124Z,3.77
2023-03-07T02:31:53.092Z,3.75
2023-03-07T02:32:53.120Z,3.74
2023-03-07T02:33:53.071Z,3.74
2023-03-07T02:34:53.059Z,3.74
2023-03-07T02:35:53.133Z,3.72
2023-03-07T02:36:53.038Z,3.75
2023-03-07T02:37:53.027Z,3.75
2023-03-07T02:38:53.018Z,3.74
2023-03-07T02:39:53.007Z,3.77
2023-03-07T02:40:52.997Z,3.75
2023-03-07T02:41:52.984Z,3.77
2023-03-07T02:42:52.982Z,3.77
2023-03-07T02:43:52.967Z,3.77
2023-03-07T02:44:52.955Z,3.78
2023-03-07T02:45:53.078Z,3.77
2023-03-07T02:46:52.942Z,3.75
2023-03-07T02:47:52.929Z,3.77
2023-03-07T02:48:52.937Z,3.75
2023-03-07T02:49:52.899Z,3.77
2023-03-07T02:50:52.905Z,3.77
2023-03-07T02:51:52.880Z,3.78
2023-03-07T02:52:52.867Z,3.77
2023-03-07T02:53:52.854Z,3.77
2023-03-07T02:54:52.846Z,3.78
2023-03-07T02:55:52.841Z,3.75
2023-03-07T02:56:52.898Z,3.78
2023-03-07T02:57:52.932Z,3.78
2023-03-07T02:58:52.897Z,3.77
2023-03-07T02:59:52.874Z,3.75
2023-03-07T03:00:52.949Z,3.74
2023-03-07T03:01:53.017Z,3.71
2023-03-07T03:02:52.768Z,3.67
2023-03-07T03:03:52.757Z,3.67
2023-03-07T03:04:52.883Z,3.71
2023-03-07T03:05:52.731Z,3.71
2023-03-07T03:06:52.732Z,3.70
2023-03-07T03:07:52.720Z,3.71
2023-03-07T03:08:52.702Z,3.70
2023-03-07T03:09:52.691Z,3.68
2023-03-07T03:10:52.681Z,3.68
2023-03-07T03:11:52.672Z,3.68
2023-03-07T03:12:52.662Z,3.68
2023-03-07T03:13:52.648Z,3.63
2023-03-07T03:14:52.647Z,3.64
2023-03-07T03:15:52.673Z,3.62
2023-03-07T03:16:52.616Z,3.60
2023-03-07T03:17:52.604Z,3.60
2023-03-07T03:18:52.899Z,3.59
2023-03-07T03:19:52.589Z,3.59
2023-03-07T03:20:52.598Z,3.54
2023-03-07T03:21:52.563Z,3.56
2023-03-07T03:22:52.550Z,3.52
2023-03-07T03:23:52.540Z,3.49
2023-03-07T03:24:52.529Z,3.46
2023-03-07T03:25:52.519Z,3.49
2023-03-07T03:26:52.508Z,3.50
2023-03-07T03:27:52.495Z,3.53
2023-03-07T03:28:52.488Z,3.52
2023-03-07T03:29:52.479Z,3.49
2023-03-07T03:30:52.463Z,3.45
2023-03-07T03:31:52.450Z,3.41
2023-03-07T03:32:52.440Z,3.35
2023-03-07T03:33:52.439Z,3.37
2023-03-07T03:34:52.418Z,3.42
2023-03-07T03:35:52.513Z,3.42
2023-03-07T03:36:52.440Z,3.44
2023-03-07T03:37:52.408Z,3.44
2023-03-07T03:38:52.372Z,3.46
2023-03-07T03:39:52.367Z,3.45
2023-03-07T03:40:52.355Z,3.42
2023-03-07T03:41:52.338Z,3.39
2023-03-07T03:42:52.328Z,3.35
2023-03-07T03:43:52.318Z,3.28
2023-03-07T03:44:52.310Z,3.26
2023-03-07T03:45:52.294Z,3.23
2023-03-07T03:46:52.361Z,3.22
2023-03-07T03:47:52.273Z,3.26
2023-03-07T03:48:52.266Z,3.25
2023-03-07T03:49:52.267Z,3.25
2023-03-07T03:50:52.245Z,3.25
2023-03-07T03:51:52.226Z,3.26
2023-03-07T03:52:52.240Z,3.26
2023-03-07T03:53:52.204Z,3.26
2023-03-07T03:54:52.196Z,3.28
2023-03-07T03:55:52.183Z,3.25
2023-03-07T03:56:52.174Z,3.25
2023-03-07T03:57:52.164Z,3.22
2023-03-07T03:58:52.155Z,3.16
2023-03-07T03:59:52.140Z,3.13
2023-03-07T04:00:52.132Z,3.10
2023-03-07T04:01:52.264Z,3.12
2023-03-07T04:02:52.212Z,3.08
2023-03-07T04:03:52.110Z,3.13
2023-03-07T04:04:52.087Z,3.07
2023-03-07T04:05:52.092Z,3.05
2023-03-07T04:06:52.065Z,3.05
2023-03-07T04:07:52.416Z,3.02
2023-03-07T04:08:52.072Z,3.01
2023-03-07T04:09:52.027Z,2.99
2023-03-07T04:10:52.020Z,3.02
2023-03-07T04:11:52.002Z,3.05
2023-03-07T04:12:51.994Z,3.01
2023-03-07T04:13:51.989Z,2.99
2023-03-07T04:14:51.974Z,3.01
2023-03-07T04:15:51.959Z,3.01
2023-03-07T04:16:51.961Z,3.01
2023-03-07T04:17:51.941Z,3.05
2023-03-07T04:18:51.933Z,3.01
2023-03-07T04:19:51.921Z,2.99
2023-03-07T04:20:51.908Z,3.01
2023-03-07T04:21:51.897Z,2.98
2023-03-07T04:22:51.886Z,2.97
2023-03-07T04:23:51.873Z,2.94
2023-03-07T04:24:51.887Z,2.98
2023-03-07T04:25:51.893Z,2.97
2023-03-07T04:26:51.839Z,2.97
2023-03-07T04:27:51.826Z,2.99
2023-03-07T04:28:51.826Z,2.99
2023-03-07T04:29:51.809Z,2.98
2023-03-07T04:30:51.799Z,2.97
2023-03-07T04:31:51.889Z,2.90
2023-03-07T04:32:51.773Z,2.90
2023-03-07T04:33:51.766Z,2.87
2023-03-07T04:34:51.750Z,2.87
2023-03-07T04:35:51.837Z,2.90
2023-03-07T04:36:51.738Z,2.94
2023-03-07T04:37:51.714Z,2.95
2023-03-07T04:38:51.717Z,2.92
2023-03-07T04:39:51.693Z,2.90
2023-03-07T04:40:51.795Z,2.89
2023-03-07T04:41:51.677Z,2.87
2023-03-07T04:42:51.665Z,2.92
2023-03-07T04:43:51.660Z,2.95
2023-03-07T04:44:51.657Z,2.97
2023-03-07T04:45:51.674Z,2.97
2023-03-07T04:46:51.620Z,2.95
2023-03-07T04:47:51.607Z,2.90
2023-03-07T04:48:51.600Z,2.94
2023-03-07T04:49:51.592Z,2.90
2023-03-07T04:50:51.581Z,2.92
2023-03-07T04:51:51.714Z,2.90
2023-03-07T04:52:51.553Z,2.89
2023-03-07T04:53:51.548Z,2.92
2023-03-07T04:54:51.530Z,2.94
2023-03-07T04:55:51.519Z,2.94
2023-03-07T04:56:51.575Z,2.94
2023-03-07T04:57:51.509Z,2.95
2023-03-07T04:58:51.495Z,2.89
2023-03-07T04:59:51.476Z,2.87
2023-03-07T05:01:51.478Z,2.87
2023-03-07T05:02:51.449Z,2.86
2023-03-07T05:03:51.436Z,2.84
2023-03-07T05:04:51.423Z,2.81
2023-03-07T05:05:51.417Z,2.79
2023-03-07T05:06:51.406Z,2.76
2023-03-07T05:07:51.392Z,2.79
2023-03-07T05:08:51.378Z,2.79
2023-03-07T05:09:51.386Z,2.81
2023-03-07T05:10:51.358Z,2.84
2023-03-07T05:11:53.532Z,2.86
2023-03-07T05:12:51.358Z,2.84
2023-03-07T05:13:51.325Z,2.80
2023-03-07T05:14:51.338Z,2.77
2023-03-07T05:15:51.506Z,2.79
2023-03-07T05:16:51.291Z,2.79
2023-03-07T05:17:51.284Z,2.77
2023-03-07T05:18:51.284Z,2.79
2023-03-07T05:19:51.260Z,2.76
2023-03-07T05:20:51.247Z,2.79
2023-03-07T05:21:51.241Z,2.77
2023-03-07T05:22:51.224Z,2.77
2023-03-07T05:23:51.264Z,2.76
2023-03-07T05:24:51.202Z,2.76
2023-03-07T05:25:51.197Z,2.76
2023-03-07T05:26:51.181Z,2.77
2023-03-07T05:27:51.169Z,2.81
2023-03-07T05:28:51.193Z,2.84
2023-03-07T05:29:51.147Z,2.81
2023-03-07T05:30:51.161Z,2.84
2023-03-07T05:31:51.128Z,2.84
2023-03-07T05:32:51.121Z,2.86
2023-03-07T05:33:51.103Z,2.81
2023-03-07T05:34:51.095Z,2.81
2023-03-07T05:35:51.147Z,2.81
2023-03-07T05:36:51.072Z,2.79
2023-03-07T05:37:51.063Z,2.73
2023-03-07T05:38:51.052Z,2.68
2023-03-07T05:39:51.041Z,2.68
2023-03-07T05:40:51.028Z,2.73
2023-03-07T05:41:51.015Z,2.65
2023-03-07T05:42:51.006Z,2.62
2023-03-07T05:43:50.994Z,2.65
2023-03-07T05:44:51.024Z,2.68
2023-03-07T05:45:51.047Z,2.76
2023-03-07T05:46:50.962Z,2.74
2023-03-07T05:47:50.952Z,2.73
2023-03-07T05:48:50.941Z,2.74
2023-03-07T05:49:50.933Z,2.71
2023-03-07T05:50:50.922Z,2.69
2023-03-07T05:51:50.911Z,2.69
2023-03-07T05:52:50.912Z,2.66
2023-03-07T05:53:50.889Z,2.65
2023-03-07T05:54:51.440Z,2.65
2023-03-07T05:55:50.871Z,2.65
2023-03-07T05:56:50.858Z,2.68
2023-03-07T05:57:50.845Z,2.63
2023-03-07T05:58:50.838Z,2.68
2023-03-07T05:59:50.826Z,2.66
2023-03-07T06:00:50.874Z,2.66
2023-03-07T06:01:50.803Z,2.66
2023-03-07T06:02:50.821Z,2.65
2023-03-07T06:03:50.866Z,2.71
2023-03-07T06:04:50.770Z,2.73
2023-03-07T06:05:50.760Z,2.69
2023-03-07T06:06:50.744Z,2.69
2023-03-07T06:07:50.735Z,2.71
2023-03-07T06:08:50.722Z,2.73
2023-03-07T06:09:50.719Z,2.69
2023-03-07T06:10:50.814Z,2.77
2023-03-07T06:11:50.697Z,2.80
2023-03-07T06:12:50.681Z,2.83
2023-03-07T06:13:50.668Z,2.84
2023-03-07T06:14:50.661Z,2.86
2023-03-07T06:15:50.709Z,2.90
2023-03-07T06:16:50.662Z,2.90
2023-03-07T06:17:50.627Z,2.95
2023-03-07T06:18:50.615Z,2.92
2023-03-07T06:19:50.604Z,2.94
2023-03-07T06:20:50.590Z,2.94
2023-03-07T06:21:50.585Z,2.95
2023-03-07T06:22:50.572Z,2.98
2023-03-07T06:23:50.562Z,2.98
2023-03-07T06:24:50.551Z,2.99
2023-03-07T06:25:50.544Z,2.99
2023-03-07T06:26:50.526Z,2.99
2023-03-07T06:27:50.524Z,2.99
2023-03-07T06:28:50.513Z,3.05
2023-03-07T06:29:50.494Z,3.08
2023-03-07T06:30:50.513Z,3.10
2023-03-07T06:31:50.521Z,3.10
2023-03-07T06:32:50.489Z,3.07
2023-03-07T06:33:50.451Z,3.07
2023-03-07T06:34:50.447Z,3.10
2023-03-07T06:35:50.461Z,3.12
2023-03-07T06:36:50.418Z,3.10
2023-03-07T06:37:50.406Z,3.19
2023-03-07T06:38:50.400Z,3.22
2023-03-07T06:39:50.392Z,3.23
2023-03-07T06:40:50.371Z,3.30
2023-03-07T06:41:50.363Z,3.31
2023-03-07T06:42:50.350Z,3.33
2023-03-07T06:43:50.345Z,3.37
2023-03-07T06:44:50.332Z,3.42
2023-03-07T06:45:50.374Z,3.42
2023-03-07T06:46:50.313Z,3.45
2023-03-07T06:47:50.306Z,3.45
2023-03-07T06:48:50.349Z,3.46
2023-03-07T06:49:50.273Z,3.49
2023-03-07T06:50:50.283Z,3.56
2023-03-07T06:51:50.253Z,3.56
2023-03-07T06:52:50.242Z,3.57
2023-03-07T06:53:50.232Z,3.57
2023-03-07T06:54:50.227Z,3.60
2023-03-07T06:55:50.213Z,3.60
2023-03-07T06:56:50.202Z,3.60
2023-03-07T06:57:50.196Z,3.57
2023-03-07T06:58:50.180Z,3.59
2023-03-07T06:59:50.176Z,3.60
2023-03-07T07:00:50.161Z,3.60
2023-03-07T07:01:50.309Z,3.62
2023-03-07T07:02:50.290Z,3.63
2023-03-07T07:03:50.129Z,3.64
2023-03-07T07:04:50.137Z,3.67
2023-03-07T07:05:50.104Z,3.72
2023-03-07T07:06:50.097Z,3.72
2023-03-07T07:07:50.083Z,3.78
2023-03-07T07:08:50.069Z,3.81
2023-03-07T07:09:50.065Z,3.84
2023-03-07T07:10:50.048Z,3.88
2023-03-07T07:11:50.038Z,3.89
2023-03-07T07:12:50.028Z,3.89
2023-03-07T07:13:50.016Z,3.92
2023-03-07T07:14:50.008Z,3.92
2023-03-07T07:15:49.995Z,3.92
2023-03-07T07:16:50.027Z,3.90
2023-03-07T07:17:49.980Z,3.88
2023-03-07T07:18:49.968Z,3.89
2023-03-07T07:19:49.983Z,3.93
2023-03-07T07:20:50.019Z,3.96
2023-03-07T07:21:49.924Z,3.99
2023-03-07T07:22:49.918Z,4.02
2023-03-07T07:23:49.913Z,4.08
2023-03-07T07:24:49.902Z,4.13
2023-03-07T07:25:49.878Z,4.14
2023-03-07T07:26:49.867Z,4.18
2023-03-07T07:27:49.864Z,4.26
2023-03-07T07:28:49.842Z,4.29
2023-03-07T07:29:49.848Z,4.29
2023-03-07T07:30:49.819Z,4.29
2023-03-07T07:31:50.056Z,4.28
2023-03-07T07:32:49.995Z,4.28
2023-03-07T07:33:49.796Z,4.25
2023-03-07T07:34:49.788Z,4.25
2023-03-07T07:35:49.825Z,4.25
2023-03-07T07:36:49.850Z,4.24
2023-03-07T07:37:49.745Z,4.14
2023-03-07T07:38:49.733Z,4.14
2023-03-07T07:39:49.723Z,4.10
2023-03-07T07:40:49.712Z,4.07
2023-03-07T07:41:49.700Z,4.00
2023-03-07T07:42:49.691Z,4.00
2023-03-07T07:43:49.683Z,3.99
2023-03-07T07:44:49.681Z,4.02
2023-03-07T07:45:49.707Z,4.04
2023-03-07T07:46:49.647Z,4.04
2023-03-07T07:47:49.644Z,3.99
2023-03-07T07:48:49.635Z,3.96
2023-03-07T07:49:49.622Z,3.98
2023-03-07T07:50:49.603Z,4.00
2023-03-07T07:51:49.596Z,3.98
2023-03-07T07:52:49.619Z,3.96
2023-03-07T07:53:49.569Z,3.96
2023-03-07T07:54:49.557Z,3.95
2023-03-07T07:55:49.554Z,3.98
2023-03-07T07:56:49.540Z,4.04
2023-03-07T07:57:49.529Z,4.06
2023-03-07T07:58:49.515Z,4.10
2023-03-07T07:59:49.540Z,4.08
2023-03-07T08:00:49.493Z,4.02
2023-03-07T08:01:49.498Z,4.06
2023-03-07T08:02:49.473Z,4.04
2023-03-07T08:03:49.542Z,4.04
2023-03-07T08:04:49.448Z,4.02
2023-03-07T08:05:49.439Z,4.06
2023-03-07T08:06:49.430Z,4.06
2023-03-07T08:07:49.416Z,4.07
2023-03-07T08:08:49.438Z,4.02
2023-03-07T08:09:49.395Z,4.00
2023-03-07T08:10:49.380Z,3.96
2023-03-07T08:11:49.377Z,4.00
2023-03-07T08:12:49.359Z,4.04
2023-03-07T08:13:49.349Z,4.07
2023-03-07T08:14:49.337Z,4.07
2023-03-07T08:15:49.410Z,4.07
2023-03-07T08:16:49.327Z,4.10
2023-03-07T08:17:49.303Z,4.13
2023-03-07T08:18:49.309Z,4.17
2023-03-07T08:19:49.292Z,4.20
2023-03-07T08:20:49.372Z,4.24
2023-03-07T08:21:49.264Z,4.25
2023-03-07T08:22:49.253Z,4.26
2023-03-07T08:23:49.240Z,4.29
2023-03-07T08:24:49.250Z,4.31
2023-03-07T08:25:49.215Z,4.34
2023-03-07T08:26:49.206Z,4.43
2023-03-07T08:27:49.190Z,4.47
2023-03-07T08:28:49.182Z,4.51
2023-03-07T08:29:49.177Z,4.51
2023-03-07T08:30:49.202Z,4.53
2023-03-07T08:31:49.149Z,4.59
2023-03-07T08:32:49.171Z,4.59
2023-03-07T08:33:49.130Z,4.61
2023-03-07T08:34:49.114Z,4.65
2023-03-07T08:35:49.175Z,4.67
2023-03-07T08:36:49.091Z,4.71
2023-03-07T08:37:49.110Z,4.74
2023-03-07T08:38:49.071Z,4.79
2023-03-07T08:39:49.069Z,4.83
2023-03-07T08:40:49.074Z,4.87
2023-03-07T08:41:49.054Z,4.88
2023-03-07T08:42:49.033Z,4.91
2023-03-07T08:43:49.031Z,4.97
2023-03-07T08:44:49.037Z,4.97
2023-03-07T08:45:48.992Z,5.05
2023-03-07T08:46:48.979Z,5.05
2023-03-07T08:47:48.968Z,5.08
2023-03-07T08:48:48.960Z,4.99
2023-03-07T08:49:48.964Z,4.91
2023-03-07T08:50:48.934Z,4.86
2023-03-07T08:51:48.944Z,4.80
2023-03-07T08:52:48.910Z,4.74
2023-03-07T08:53:48.914Z,4.69
2023-03-07T08:54:48.891Z,4.71
2023-03-07T08:55:48.885Z,4.72
2023-03-07T08:56:49.003Z,4.80
2023-03-07T08:57:48.854Z,4.71
2023-03-07T08:58:48.850Z,4.72
2023-03-07T08:59:48.840Z,4.80
2023-03-07T09:00:48.828Z,4.83
2023-03-07T09:01:48.881Z,4.75
2023-03-07T09:02:48.824Z,4.71
2023-03-07T09:03:48.788Z,4.69
2023-03-07T09:04:48.871Z,4.65
2023-03-07T09:05:48.763Z,4.71
2023-03-07T09:06:48.752Z,4.74
2023-03-07T09:07:48.748Z,4.84
2023-03-07T09:08:48.727Z,4.80
2023-03-07T09:09:48.738Z,4.79
2023-03-07T09:10:48.714Z,4.75
2023-03-07T09:11:48.698Z,4.72
2023-03-07T09:12:48.710Z,4.74
2023-03-07T09:13:52.450Z,4.72
2023-03-07T09:14:48.685Z,4.67
2023-03-07T09:15:48.655Z,4.67
2023-03-07T09:16:48.642Z,4.67
2023-03-07T09:17:48.636Z,4.68
2023-03-07T09:18:48.622Z,4.67
2023-03-07T09:19:48.613Z,4.62
2023-03-07T09:20:48.600Z,4.62
2023-03-07T09:21:48.588Z,4.57
2023-03-07T09:22:48.576Z,4.54
2023-03-07T09:23:48.572Z,4.54
2023-03-07T09:24:48.564Z,4.50
2023-03-07T09:25:48.551Z,4.49
2023-03-07T09:26:48.535Z,4.44
2023-03-07T09:27:50.416Z,4.38
2023-03-07T09:28:48.534Z,4.39
2023-03-07T09:29:48.519Z,4.42
2023-03-07T09:30:48.492Z,4.56
2023-03-07T09:31:48.512Z,4.67
2023-03-07T09:32:48.468Z,4.69
2023-03-07T09:33:48.459Z,4.65
2023-03-07T09:34:48.486Z,4.61
2023-03-07T09:35:48.495Z,4.68
2023-03-07T09:36:48.429Z,4.69
2023-03-07T09:37:48.421Z,4.75
2023-03-07T09:38:48.404Z,4.87
2023-03-07T09:39:48.404Z,4.83
2023-03-07T09:40:48.413Z,4.75
2023-03-07T09:41:48.372Z,4.77
2023-03-07T09:42:48.360Z,4.79
2023-03-07T09:43:48.350Z,4.77
2023-03-07T09:44:48.359Z,4.87
2023-03-07T09:45:48.412Z,4.90
2023-03-07T09:46:48.319Z,4.90
2023-03-07T09:47:48.314Z,4.96
2023-03-07T09:48:48.296Z,4.96
2023-03-07T09:49:48.283Z,5.09
2023-03-07T09:50:48.272Z,5.14
2023-03-07T09:51:48.270Z,5.24
2023-03-07T09:52:48.249Z,5.33
2023-03-07T09:53:48.243Z,5.30
2023-03-07T09:54:48.226Z,5.41
2023-03-07T09:55:48.250Z,5.51
2023-03-07T09:56:48.206Z,5.56
2023-03-07T09:57:48.235Z,5.70
2023-03-07T09:58:48.222Z,5.80
2023-03-07T09:59:48.176Z,5.81
2023-03-07T10:00:48.306Z,5.83
2023-03-07T10:01:48.193Z,5.81
2023-03-07T10:02:48.310Z,5.90
2023-03-07T10:03:48.307Z,5.95
2023-03-07T10:04:48.287Z,6.05
2023-03-07T10:05:48.283Z,6.10
2023-03-07T10:06:48.227Z,6.03
2023-03-07T10:07:48.094Z,6.05
2023-03-07T10:08:48.075Z,6.03
2023-03-07T10:09:48.065Z,6.10
2023-03-07T10:10:48.057Z,6.20
2023-03-07T10:11:48.105Z,6.39
2023-03-07T10:12:48.032Z,6.63
2023-03-07T10:13:48.025Z,6.60
2023-03-07T10:14:48.007Z,6.69
2023-03-07T10:15:48.052Z,6.82
2023-03-07T10:16:48.134Z,6.72
2023-03-07T10:17:47.979Z,6.78
2023-03-07T10:18:47.977Z,6.78
2023-03-07T10:19:47.954Z,6.69
2023-03-07T10:20:47.952Z,6.54
2023-03-07T10:21:47.930Z,6.50
2023-03-07T10:22:47.930Z,6.45
2023-03-07T10:23:47.955Z,6.45
2023-03-07T10:24:47.900Z,6.45
2023-03-07T10:25:47.889Z,6.43
2023-03-07T10:26:47.886Z,6.24
2023-03-07T10:27:47.881Z,6.16
2023-03-07T10:28:47.857Z,6.16
2023-03-07T10:29:47.839Z,6.13
2023-03-07T10:30:47.830Z,6.16
2023-03-07T10:31:47.839Z,6.13
2023-03-07T10:32:47.903Z,6.16
2023-03-07T10:33:47.800Z,6.16
2023-03-07T10:34:47.791Z,6.13
2023-03-07T10:35:47.795Z,6.21
2023-03-07T10:36:49.050Z,6.24
2023-03-07T10:37:47.750Z,6.25
2023-03-07T10:38:47.741Z,6.36
2023-03-07T10:39:47.727Z,6.39
2023-03-07T10:40:47.721Z,6.57
2023-03-07T10:41:47.707Z,6.72
2023-03-07T10:42:47.699Z,6.89
2023-03-07T10:43:47.681Z,7.04
2023-03-07T10:44:47.673Z,7.09
2023-03-07T10:45:47.826Z,7.24
2023-03-07T10:46:55.739Z,7.12
2023-03-07T10:47:48.681Z,7.15
2023-03-07T10:48:47.664Z,7.26
2023-03-07T10:49:47.615Z,7.37
2023-03-07T10:50:47.611Z,7.51
2023-03-07T10:51:47.601Z,7.63
2023-03-07T10:52:47.603Z,7.67
2023-03-07T10:53:47.572Z,7.77
2023-03-07T10:54:47.564Z,7.85
2023-03-07T10:55:47.549Z,7.60
2023-03-07T10:56:47.548Z,7.77
2023-03-07T10:57:47.530Z,7.89
2023-03-07T10:58:47.516Z,7.82
2023-03-07T10:59:47.542Z,7.86
2023-03-07T11:00:47.494Z,7.94
2023-03-07T11:01:47.527Z,7.92
2023-03-07T11:02:47.479Z,7.66
2023-03-07T11:03:53.584Z,7.57
2023-03-07T11:04:47.619Z,7.54
2023-03-07T11:05:47.438Z,7.36
2023-03-07T11:06:47.427Z,7.26
2023-03-07T11:07:47.421Z,7.18
2023-03-07T11:08:47.404Z,7.14
2023-03-07T11:09:47.400Z,7.07
2023-03-07T11:10:47.379Z,6.90
2023-03-07T11:11:47.379Z,6.94
2023-03-07T11:12:47.359Z,7.04
2023-03-07T11:13:47.348Z,6.79
2023-03-07T11:14:47.334Z,6.82
2023-03-07T11:15:47.363Z,6.90
2023-03-07T11:16:47.487Z,7.01
2023-03-07T11:17:47.310Z,7.00
2023-03-07T11:18:47.292Z,6.90
2023-03-07T11:19:47.279Z,6.94
2023-03-07T11:20:47.310Z,6.93
2023-03-07T11:21:47.259Z,6.99
2023-03-07T11:22:47.270Z,7.01
2023-03-07T11:23:47.285Z,7.18
2023-03-07T11:24:47.222Z,7.19
2023-03-07T11:25:47.212Z,7.29
2023-03-07T11:26:47.210Z,7.45
2023-03-07T11:27:47.203Z,7.58
2023-03-07T11:28:47.182Z,7.74
2023-03-07T11:29:47.169Z,7.58
2023-03-07T11:30:47.179Z,7.66
2023-03-07T11:31:47.298Z,7.60
2023-03-07T11:32:47.201Z,7.37
2023-03-07T11:33:58.480Z,7.21
2023-03-07T11:34:48.142Z,7.09
2023-03-07T11:35:47.145Z,6.96
2023-03-07T11:36:47.116Z,6.86
2023-03-07T11:37:47.096Z,6.83
2023-03-07T11:38:47.073Z,6.99
2023-03-07T11:39:47.058Z,7.11
2023-03-07T11:40:47.050Z,7.12
2023-03-07T11:41:47.043Z,7.00
2023-03-07T11:42:47.034Z,6.71
2023-03-07T11:43:47.017Z,6.64
2023-03-07T11:44:47.007Z,6.64
2023-03-07T11:45:46.994Z,6.76
2023-03-07T11:46:47.063Z,6.81
2023-03-07T11:47:46.986Z,6.69
2023-03-07T11:48:46.964Z,6.78
2023-03-07T11:49:46.982Z,6.79
2023-03-07T11:50:46.941Z,6.82
2023-03-07T11:51:46.926Z,6.89
2023-03-07T11:52:46.953Z,6.99
2023-03-07T11:53:46.905Z,7.04
2023-03-07T11:54:46.899Z,6.97
2023-03-07T11:55:46.886Z,7.01
2023-03-07T11:56:46.875Z,7.07
2023-03-07T11:57:46.863Z,7.01
2023-03-07T11:58:46.856Z,7.07
2023-03-07T11:59:46.853Z,7.01
2023-03-07T12:00:46.834Z,6.91
2023-03-07T12:01:46.825Z,6.99
2023-03-07T12:02:46.871Z,7.04
2023-03-07T12:03:46.799Z,6.89
2023-03-07T12:04:46.790Z,6.87
2023-03-07T12:05:46.927Z,6.91
2023-03-07T12:06:46.893Z,6.87
2023-03-07T12:07:46.763Z,6.91
2023-03-07T12:08:46.789Z,6.99
2023-03-07T12:09:46.885Z,6.99
2023-03-07T12:10:46.725Z,6.82
2023-03-07T12:11:46.710Z,6.71
2023-03-07T12:12:46.713Z,6.71
2023-03-07T12:13:46.697Z,6.72
2023-03-07T12:14:46.686Z,6.75
2023-03-07T12:15:46.668Z,6.71
2023-03-07T12:16:46.659Z,6.61
2023-03-07T12:17:46.648Z,6.54
2023-03-07T12:18:46.636Z,6.64
2023-03-07T12:19:46.636Z,6.68
2023-03-07T12:20:46.615Z,6.73
2023-03-07T12:21:46.608Z,6.78
2023-03-07T12:22:46.593Z,6.91
2023-03-07T12:23:46.578Z,6.97
2023-03-07T12:24:46.597Z,7.09
2023-03-07T12:25:46.658Z,7.18
2023-03-07T12:26:46.705Z,7.24
2023-03-07T12:27:46.540Z,7.11
2023-03-07T12:28:46.540Z,7.16
2023-03-07T12:29:46.514Z,7.16
2023-03-07T12:30:46.507Z,7.21
2023-03-07T12:31:46.591Z,7.19
2023-03-07T12:32:46.601Z,7.30
2023-03-07T12:33:46.469Z,7.21
2023-03-07T12:34:46.463Z,7.23
2023-03-07T12:35:46.512Z,7.19
2023-03-07T12:36:46.444Z,7.09
2023-03-07T12:37:46.427Z,7.07
2023-03-07T12:38:46.420Z,7.21
2023-03-07T12:39:46.407Z,7.21
2023-03-07T12:40:46.423Z,7.24
2023-03-07T12:41:46.386Z,7.32
2023-03-07T12:42:46.376Z,7.36
2023-03-07T12:43:46.361Z,7.27
2023-03-07T12:44:46.355Z,7.26
2023-03-07T12:45:46.479Z,7.23
2023-03-07T12:46:46.328Z,7.08
2023-03-07T12:47:46.321Z,7.00
2023-03-07T12:48:46.307Z,6.97
2023-03-07T12:49:50.057Z,7.08
2023-03-07T12:50:46.293Z,7.01
2023-03-07T12:51:46.274Z,7.01
2023-03-07T12:52:46.412Z,6.97
2023-03-07T12:53:46.253Z,7.00
2023-03-07T12:54:46.253Z,7.12
2023-03-07T12:55:46.231Z,7.23
2023-03-07T12:56:46.244Z,7.33
2023-03-07T12:57:46.209Z,7.34
2023-03-07T12:58:46.204Z,7.47
2023-03-07T12:59:46.187Z,7.48
2023-03-07T13:00:46.279Z,7.45
2023-03-07T13:01:46.200Z,7.42
2023-03-07T13:02:46.155Z,7.34
2023-03-07T13:03:46.225Z,7.42
2023-03-07T13:04:46.130Z,7.60
2023-03-07T13:05:46.115Z,7.62
2023-03-07T13:06:46.115Z,7.85
2023-03-07T13:07:46.095Z,8.02
2023-03-07T13:08:46.083Z,8.25
2023-03-07T13:09:46.073Z,8.36
2023-03-07T13:10:46.073Z,8.49
2023-03-07T13:11:46.251Z,8.47
2023-03-07T13:12:46.061Z,8.57
2023-03-07T13:13:46.152Z,8.75
2023-03-07T13:14:46.031Z,8.60
2023-03-07T13:15:46.008Z,8.47
2023-03-07T13:16:46.100Z,8.40
2023-03-07T13:17:45.983Z,8.28
2023-03-07T13:18:46.006Z,8.21
2023-03-07T13:19:45.996Z,8.10